sensor_id;sensor_type;location;lat;lon;timestamp;pressure;altitude;pressure_sealevel;temperature;humidity
41636;BME280;27623;51.966;4.602;2024-01-11T00:00:14;63163.03;;;1.13;55.44
41636;BME280;27623;51.966;4.602;2024-01-11T00:02:40;63163.56;;;1.13;55.36
41636;BME280;27623;51.966;4.602;2024-01-11T00:05:06;63163.53;;;1.06;55.39
41636;BME280;27623;51.966;4.602;2024-01-11T00:07:32;63127.19;;;1.02;56.57
41636;BME280;27623;51.966;4.602;2024-01-11T00:09:57;63155.81;;;0.96;56.64
41636;BME280;27623;51.966;4.602;2024-01-11T00:12:22;63113.38;;;0.99;56.43
41636;BME280;27623;51.966;4.602;2024-01-11T00:14:48;63119.81;;;0.98;56.79
41636;BME280;27623;51.966;4.602;2024-01-11T00:17:13;63149.34;;;0.90;56.67
41636;BME280;27623;51.966;4.602;2024-01-11T00:19:38;63124.81;;;0.91;56.89
41636;BME280;27623;51.966;4.602;2024-01-11T00:22:04;63137.88;;;0.84;57.50
41636;BME280;27623;51.966;4.602;2024-01-11T00:24:29;63103.28;;;0.71;57.87
41636;BME280;27623;51.966;4.602;2024-01-11T00:26:55;63095.06;;;0.75;57.89
41636;BME280;27623;51.966;4.602;2024-01-11T00:29:20;63081.63;;;0.76;57.96
41636;BME280;27623;51.966;4.602;2024-01-11T00:31:45;63086.81;;;0.72;57.52
41636;BME280;27623;51.966;4.602;2024-01-11T00:34:13;63103.84;;;0.85;57.41
41636;BME280;27623;51.966;4.602;2024-01-11T00:36:41;63110.84;;;0.78;57.73
41636;BME280;27623;51.966;4.602;2024-01-11T00:39:07;63107.59;;;0.75;57.60
41636;BME280;27623;51.966;4.602;2024-01-11T00:41:32;63093.25;;;0.71;57.87
41636;BME280;27623;51.966;4.602;2024-01-11T00:43:58;63123.19;;;0.75;57.91
41636;BME280;27623;51.966;4.602;2024-01-11T00:46:23;63111.19;;;0.76;57.79
41636;BME280;27623;51.966;4.602;2024-01-11T00:48:48;63131.06;;;0.73;58.03
41636;BME280;27623;51.966;4.602;2024-01-11T00:51:15;63095.91;;;0.52;58.47
41636;BME280;27623;51.966;4.602;2024-01-11T00:53:40;63102.72;;;0.56;58.88
41636;BME280;27623;51.966;4.602;2024-01-11T00:56:16;63101.78;;;0.36;59.43
41636;BME280;27623;51.966;4.602;2024-01-11T00:58:44;63096.78;;;0.50;58.92
41636;BME280;27623;51.966;4.602;2024-01-11T01:01:09;63067.59;;;0.42;59.30
41636;BME280;27623;51.966;4.602;2024-01-11T01:03:38;63092.09;;;0.34;59.39
41636;BME280;27623;51.966;4.602;2024-01-11T01:06:03;63088.56;;;0.47;59.22
41636;BME280;27623;51.966;4.602;2024-01-11T01:08:29;63069.41;;;0.39;59.62
41636;BME280;27623;51.966;4.602;2024-01-11T01:10:55;63103.25;;;0.49;59.60
41636;BME280;27623;51.966;4.602;2024-01-11T01:13:20;63057.06;;;0.55;59.35
41636;BME280;27623;51.966;4.602;2024-01-11T01:15:46;63103.41;;;0.45;59.37
41636;BME280;27623;51.966;4.602;2024-01-11T01:18:11;63107.88;;;0.44;59.30
41636;BME280;27623;51.966;4.602;2024-01-11T01:20:37;63121.66;;;0.48;59.42
41636;BME280;27623;51.966;4.602;2024-01-11T01:23:02;63060.44;;;0.47;59.50
41636;BME280;27623;51.966;4.602;2024-01-11T01:25:28;63052.22;;;0.44;59.57
41636;BME280;27623;51.966;4.602;2024-01-11T01:27:53;63063.84;;;0.45;59.64
41636;BME280;27623;51.966;4.602;2024-01-11T01:30:19;63063.31;;;0.45;59.21
41636;BME280;27623;51.966;4.602;2024-01-11T01:32:45;63052.38;;;0.32;60.25
41636;BME280;27623;51.966;4.602;2024-01-11T01:35:10;63086.22;;;0.36;59.75
41636;BME280;27623;51.966;4.602;2024-01-11T01:37:36;63055.78;;;0.38;59.50
41636;BME280;27623;51.966;4.602;2024-01-11T01:40:01;63074.41;;;0.46;60.02
41636;BME280;27623;51.966;4.602;2024-01-11T01:42:27;63075.88;;;0.52;59.46
41636;BME280;27623;51.966;4.602;2024-01-11T01:44:52;63100.34;;;0.44;59.80
41636;BME280;27623;51.966;4.602;2024-01-11T01:47:18;63071.34;;;0.31;59.93
41636;BME280;27623;51.966;4.602;2024-01-11T01:49:44;63087.13;;;0.41;59.80
41636;BME280;27623;51.966;4.602;2024-01-11T01:52:13;63085.81;;;0.30;60.16
41636;BME280;27623;51.966;4.602;2024-01-11T01:54:39;63084.78;;;0.44;60.34
41636;BME280;27623;51.966;4.602;2024-01-11T01:57:07;63032.34;;;0.32;60.19
41636;BME280;27623;51.966;4.602;2024-01-11T01:59:33;63109.47;;;0.39;59.67
41636;BME280;27623;51.966;4.602;2024-01-11T02:02:01;63126.31;;;0.50;59.79
41636;BME280;27623;51.966;4.602;2024-01-11T02:04:27;63064.75;;;0.44;60.03
41636;BME280;27623;51.966;4.602;2024-01-11T02:06:53;63042.69;;;0.23;60.59
41636;BME280;27623;51.966;4.602;2024-01-11T02:09:20;63059.84;;;0.18;61.26
41636;BME280;27623;51.966;4.602;2024-01-11T02:11:46;63076.53;;;0.33;61.24
41636;BME280;27623;51.966;4.602;2024-01-11T02:14:11;63080.31;;;0.37;61.23
41636;BME280;27623;51.966;4.602;2024-01-11T02:16:39;63089.97;;;0.46;61.20
41636;BME280;27623;51.966;4.602;2024-01-11T02:19:06;63068.28;;;0.23;61.63
41636;BME280;27623;51.966;4.602;2024-01-11T02:21:33;63080.81;;;0.30;62.16
41636;BME280;27623;51.966;4.602;2024-01-11T02:24:05;63044.84;;;0.25;62.10
41636;BME280;27623;51.966;4.602;2024-01-11T02:26:31;63057.72;;;0.16;61.97
41636;BME280;27623;51.966;4.602;2024-01-11T02:28:56;63025.84;;;0.12;62.13
41636;BME280;27623;51.966;4.602;2024-01-11T02:31:22;63038.56;;;0.21;61.97
41636;BME280;27623;51.966;4.602;2024-01-11T02:33:47;63012.81;;;0.25;61.76
41636;BME280;27623;51.966;4.602;2024-01-11T02:36:13;63022.75;;;-0.10;63.08
41636;BME280;27623;51.966;4.602;2024-01-11T02:38:41;63024.41;;;0.06;63.01
41636;BME280;27623;51.966;4.602;2024-01-11T02:41:07;63069.31;;;0.10;62.81
41636;BME280;27623;51.966;4.602;2024-01-11T02:43:32;63070.03;;;0.13;62.70
41636;BME280;27623;51.966;4.602;2024-01-11T02:46:01;63073.97;;;0.12;62.84
41636;BME280;27623;51.966;4.602;2024-01-11T02:48:30;63056.22;;;0.03;63.00
41636;BME280;27623;51.966;4.602;2024-01-11T02:50:56;63022.25;;;-0.04;63.17
41636;BME280;27623;51.966;4.602;2024-01-11T02:53:22;63069.50;;;0.13;62.78
41636;BME280;27623;51.966;4.602;2024-01-11T02:55:48;63049.44;;;-0.02;63.10
41636;BME280;27623;51.966;4.602;2024-01-11T02:58:14;63002.56;;;-0.06;63.36
41636;BME280;27623;51.966;4.602;2024-01-11T03:00:39;63049.78;;;0.04;63.50
41636;BME280;27623;51.966;4.602;2024-01-11T03:03:07;63042.63;;;0.02;63.50
41636;BME280;27623;51.966;4.602;2024-01-11T03:05:32;63022.06;;;0.01;63.47
41636;BME280;27623;51.966;4.602;2024-01-11T03:07:58;63032.22;;;-0.11;63.46
41636;BME280;27623;51.966;4.602;2024-01-11T03:10:23;63043.16;;;0.02;63.68
41636;BME280;27623;51.966;4.602;2024-01-11T03:12:49;63026.88;;;-0.09;63.74
41636;BME280;27623;51.966;4.602;2024-01-11T03:15:15;63007.16;;;-0.18;64.46
41636;BME280;27623;51.966;4.602;2024-01-11T03:17:41;63023.31;;;-0.03;63.95
41636;BME280;27623;51.966;4.602;2024-01-11T03:20:06;63041.38;;;-0.02;63.73
41636;BME280;27623;51.966;4.602;2024-01-11T03:22:32;63028.69;;;-0.05;63.89
41636;BME280;27623;51.966;4.602;2024-01-11T03:25:00;62988.25;;;-0.10;64.37
41636;BME280;27623;51.966;4.602;2024-01-11T03:27:25;63041.56;;;0.00;64.27
41636;BME280;27623;51.966;4.602;2024-01-11T03:29:51;63022.94;;;-0.08;64.43
41636;BME280;27623;51.966;4.602;2024-01-11T03:32:16;62989.28;;;-0.23;64.92
41636;BME280;27623;51.966;4.602;2024-01-11T03:34:42;63003.97;;;-0.14;64.47
41636;BME280;27623;51.966;4.602;2024-01-11T03:37:07;63004.31;;;-0.23;65.41
41636;BME280;27623;51.966;4.602;2024-01-11T03:39:34;62997.53;;;-0.13;64.53
41636;BME280;27623;51.966;4.602;2024-01-11T03:42:01;63013.06;;;-0.26;65.50
41636;BME280;27623;51.966;4.602;2024-01-11T03:44:29;63005.53;;;-0.33;65.68
41636;BME280;27623;51.966;4.602;2024-01-11T03:46:54;63006.25;;;-0.30;65.49
41636;BME280;27623;51.966;4.602;2024-01-11T03:49:19;62973.53;;;-0.33;65.42
41636;BME280;27623;51.966;4.602;2024-01-11T03:51:45;63018.97;;;-0.21;65.46
41636;BME280;27623;51.966;4.602;2024-01-11T03:54:10;63000.53;;;-0.26;65.36
41636;BME280;27623;51.966;4.602;2024-01-11T03:56:39;62964.13;;;-0.73;67.05
41636;BME280;27623;51.966;4.602;2024-01-11T03:59:05;62996.69;;;-0.58;67.05
41636;BME280;27623;51.966;4.602;2024-01-11T04:01:31;62981.91;;;-0.42;66.59
41636;BME280;27623;51.966;4.602;2024-01-11T04:03:56;62950.56;;;-0.66;67.16
41636;BME280;27623;51.966;4.602;2024-01-11T04:06:22;62979.75;;;-0.44;66.71
41636;BME280;27623;51.966;4.602;2024-01-11T04:08:49;62984.59;;;-0.39;66.55
41636;BME280;27623;51.966;4.602;2024-01-11T04:11:15;62986.75;;;-0.37;66.46
41636;BME280;27623;51.966;4.602;2024-01-11T04:13:41;63009.59;;;-0.39;66.68
41636;BME280;27623;51.966;4.602;2024-01-11T04:16:06;62991.56;;;-0.40;65.90
41636;BME280;27623;51.966;4.602;2024-01-11T04:18:32;62996.03;;;-0.40;66.60
41636;BME280;27623;51.966;4.602;2024-01-11T04:20:58;62994.44;;;-0.42;66.71
41636;BME280;27623;51.966;4.602;2024-01-11T04:23:23;63017.84;;;-0.43;66.82
41636;BME280;27623;51.966;4.602;2024-01-11T04:25:49;62964.13;;;-0.73;67.32
41636;BME280;27623;51.966;4.602;2024-01-11T04:28:16;62972.25;;;-0.44;67.00
41636;BME280;27623;51.966;4.602;2024-01-11T04:30:42;62970.78;;;-0.64;67.43
41636;BME280;27623;51.966;4.602;2024-01-11T04:33:07;62969.31;;;-0.70;67.99
41636;BME280;27623;51.966;4.602;2024-01-11T04:35:33;62960.59;;;-0.59;67.50
41636;BME280;27623;51.966;4.602;2024-01-11T04:37:58;62970.78;;;-0.57;67.47
41636;BME280;27623;51.966;4.602;2024-01-11T04:40:24;62991.06;;;-0.80;68.41
41636;BME280;27623;51.966;4.602;2024-01-11T04:42:49;62974.16;;;-0.65;67.84
41636;BME280;27623;51.966;4.602;2024-01-11T04:45:14;62939.88;;;-0.62;67.96
41636;BME280;27623;51.966;4.602;2024-01-11T04:47:40;62964.69;;;-0.58;67.81
41636;BME280;27623;51.966;4.602;2024-01-11T04:50:08;62966.47;;;-0.68;68.21
41636;BME280;27623;51.966;4.602;2024-01-11T04:52:34;62971.81;;;-0.70;68.28
41636;BME280;27623;51.966;4.602;2024-01-11T04:54:59;62968.78;;;-0.71;68.48
41636;BME280;27623;51.966;4.602;2024-01-11T04:57:25;62945.56;;;-0.66;68.22
41636;BME280;27623;51.966;4.602;2024-01-11T04:59:50;62961.13;;;-0.66;68.19
41636;BME280;27623;51.966;4.602;2024-01-11T05:02:15;62943.75;;;-0.71;68.23
41636;BME280;27623;51.966;4.602;2024-01-11T05:04:41;62938.41;;;-0.68;68.65
41636;BME280;27623;51.966;4.602;2024-01-11T05:07:06;62969.47;;;-0.75;68.44
41636;BME280;27623;51.966;4.602;2024-01-11T05:09:31;62942.69;;;-0.72;68.69
41636;BME280;27623;51.966;4.602;2024-01-11T05:11:57;62980.72;;;-0.78;68.85
41636;BME280;27623;51.966;4.602;2024-01-11T05:14:23;62966.94;;;-0.82;69.12
41636;BME280;27623;51.966;4.602;2024-01-11T05:16:48;62968.94;;;-0.75;69.42
41636;BME280;27623;51.966;4.602;2024-01-11T05:19:13;62939.63;;;-0.86;69.71
41636;BME280;27623;51.966;4.602;2024-01-11T05:21:39;62940.19;;;-0.72;69.25
41636;BME280;27623;51.966;4.602;2024-01-11T05:24:04;62967.53;;;-0.67;69.05
41636;BME280;27623;51.966;4.602;2024-01-11T05:26:31;62974.63;;;-0.79;68.97
41636;BME280;27623;51.966;4.602;2024-01-11T05:28:57;62930.91;;;-0.68;69.55
41636;BME280;27623;51.966;4.602;2024-01-11T05:31:22;62943.53;;;-0.87;69.84
41636;BME280;27623;51.966;4.602;2024-01-11T05:33:48;62896.75;;;-0.91;70.36
41636;BME280;27623;51.966;4.602;2024-01-11T05:36:13;62948.56;;;-0.80;69.76
41636;BME280;27623;51.966;4.602;2024-01-11T05:38:39;62917.81;;;-0.90;70.02
41636;BME280;27623;51.966;4.602;2024-01-11T05:41:05;62947.50;;;-0.74;69.71
41636;BME280;27623;51.966;4.602;2024-01-11T05:43:30;62951.81;;;-0.70;69.25
41636;BME280;27623;51.966;4.602;2024-01-11T05:45:55;62956.56;;;-0.87;69.73
41636;BME280;27623;51.966;4.602;2024-01-11T05:48:21;62951.44;;;-0.75;69.67
41636;BME280;27623;51.966;4.602;2024-01-11T05:50:46;62930.34;;;-0.83;69.99
41636;BME280;27623;51.966;4.602;2024-01-11T05:53:12;62942.63;;;-0.93;70.43
41636;BME280;27623;51.966;4.602;2024-01-11T05:55:40;62937.13;;;-0.86;70.12
41636;BME280;27623;51.966;4.602;2024-01-11T05:58:06;62930.34;;;-0.83;70.30
41636;BME280;27623;51.966;4.602;2024-01-11T06:00:31;62918.88;;;-0.89;70.23
41636;BME280;27623;51.966;4.602;2024-01-11T06:02:56;62983.38;;;-0.83;69.87
41636;BME280;27623;51.966;4.602;2024-01-11T06:05:22;62928.91;;;-0.82;69.90
41636;BME280;27623;51.966;4.602;2024-01-11T06:07:47;62901.56;;;-0.87;69.57
41636;BME280;27623;51.966;4.602;2024-01-11T06:10:15;62930.50;;;-0.88;69.74
41636;BME280;27623;51.966;4.602;2024-01-11T06:12:40;62925.47;;;-0.95;70.52
41636;BME280;27623;51.966;4.602;2024-01-11T06:15:07;62916.50;;;-1.08;71.89
41636;BME280;27623;51.966;4.602;2024-01-11T06:17:32;62876.66;;;-1.27;72.00
41636;BME280;27623;51.966;4.602;2024-01-11T06:19:58;62930.28;;;-1.05;71.51
41636;BME280;27623;51.966;4.602;2024-01-11T06:22:23;62922.00;;;-1.15;71.67
41636;BME280;27623;51.966;4.602;2024-01-11T06:24:48;62924.91;;;-1.02;71.08
41636;BME280;27623;51.966;4.602;2024-01-11T06:27:14;62885.78;;;-1.11;71.42
41636;BME280;27623;51.966;4.602;2024-01-11T06:29:39;62961.69;;;-0.98;70.97
41636;BME280;27623;51.966;4.602;2024-01-11T06:32:05;62946.34;;;-0.96;71.53
41636;BME280;27623;51.966;4.602;2024-01-11T06:34:30;62947.56;;;-1.07;71.95
41636;BME280;27623;51.966;4.602;2024-01-11T06:36:56;62909.31;;;-1.17;71.65
41636;BME280;27623;51.966;4.602;2024-01-11T06:39:21;62912.53;;;-1.21;72.42
41636;BME280;27623;51.966;4.602;2024-01-11T06:41:46;62910.97;;;-1.01;71.45
41636;BME280;27623;51.966;4.602;2024-01-11T06:44:12;62909.59;;;-0.93;71.26
41636;BME280;27623;51.966;4.602;2024-01-11T06:46:37;62926.16;;;-0.99;71.29
41636;BME280;27623;51.966;4.602;2024-01-11T06:49:06;62926.50;;;-1.08;71.59
41636;BME280;27623;51.966;4.602;2024-01-11T06:51:32;62958.50;;;-0.94;71.60
41636;BME280;27623;51.966;4.602;2024-01-11T06:54:00;62942.25;;;-0.98;71.81
41636;BME280;27623;51.966;4.602;2024-01-11T06:56:26;62931.91;;;-0.96;71.75
41636;BME280;27623;51.966;4.602;2024-01-11T06:58:54;62943.13;;;-1.07;72.37
41636;BME280;27623;51.966;4.602;2024-01-11T07:01:20;62925.63;;;-1.07;72.56
41636;BME280;27623;51.966;4.602;2024-01-11T07:03:45;62892.41;;;-1.10;72.62
41636;BME280;27623;51.966;4.602;2024-01-11T07:06:11;62976.31;;;-1.04;73.19
41636;BME280;27623;51.966;4.602;2024-01-11T07:08:37;62931.16;;;-1.06;73.02
41636;BME280;27623;51.966;4.602;2024-01-11T07:11:02;62900.44;;;-1.09;73.29
41636;BME280;27623;51.966;4.602;2024-01-11T07:13:29;62923.81;;;-1.11;73.43
41636;BME280;27623;51.966;4.602;2024-01-11T07:15:54;62954.53;;;-1.00;73.19
41636;BME280;27623;51.966;4.602;2024-01-11T07:18:21;62921.69;;;-1.06;73.36
41636;BME280;27623;51.966;4.602;2024-01-11T07:20:46;62951.50;;;-1.01;73.23
41636;BME280;27623;51.966;4.602;2024-01-11T07:23:13;62900.78;;;-1.11;73.81
41636;BME280;27623;51.966;4.602;2024-01-11T07:25:38;62937.25;;;-0.98;73.54
41636;BME280;27623;51.966;4.602;2024-01-11T07:28:04;62929.22;;;-0.91;73.30
41636;BME280;27623;51.966;4.602;2024-01-11T07:30:30;62894.84;;;-1.24;74.77
41636;BME280;27623;51.966;4.602;2024-01-11T07:32:55;62908.84;;;-1.04;73.67
41636;BME280;27623;51.966;4.602;2024-01-11T07:35:23;62942.56;;;-1.07;73.63
41636;BME280;27623;51.966;4.602;2024-01-11T07:37:48;62881.22;;;-1.39;75.41
41636;BME280;27623;51.966;4.602;2024-01-11T07:40:15;62926.47;;;-1.15;74.43
41636;BME280;27623;51.966;4.602;2024-01-11T07:42:42;62888.06;;;-1.21;74.53
41636;BME280;27623;51.966;4.602;2024-01-11T07:45:08;62946.16;;;-0.99;74.00
41636;BME280;27623;51.966;4.602;2024-01-11T07:47:35;62936.34;;;-0.96;73.30
41636;BME280;27623;51.966;4.602;2024-01-11T07:50:03;62972.44;;;-0.95;73.08
41636;BME280;27623;51.966;4.602;2024-01-11T07:52:28;62927.59;;;-1.00;73.62
41636;BME280;27623;51.966;4.602;2024-01-11T07:54:56;62928.31;;;-0.97;73.47
41636;BME280;27623;51.966;4.602;2024-01-11T07:57:23;62930.78;;;-1.11;73.96
41636;BME280;27623;51.966;4.602;2024-01-11T07:59:48;62912.41;;;-1.10;74.77
41636;BME280;27623;51.966;4.602;2024-01-11T08:02:14;62893.97;;;-1.15;74.78
41636;BME280;27623;51.966;4.602;2024-01-11T08:04:42;62926.94;;;-0.89;74.03
41636;BME280;27623;51.966;4.602;2024-01-11T08:07:08;62939.94;;;-0.95;73.44
41636;BME280;27623;51.966;4.602;2024-01-11T08:09:33;62948.66;;;-0.99;74.24
41636;BME280;27623;51.966;4.602;2024-01-11T08:11:58;62947.63;;;-0.93;74.21
41636;BME280;27623;51.966;4.602;2024-01-11T08:14:24;62950.50;;;-0.88;74.03
41636;BME280;27623;51.966;4.602;2024-01-11T08:16:50;62913.66;;;-0.99;74.32
41636;BME280;27623;51.966;4.602;2024-01-11T08:19:15;62933.00;;;-0.88;74.52
41636;BME280;27623;51.966;4.602;2024-01-11T08:21:42;62932.31;;;-0.84;74.50
41636;BME280;27623;51.966;4.602;2024-01-11T08:24:07;62898.66;;;-0.99;75.01
41636;BME280;27623;51.966;4.602;2024-01-11T08:26:33;62950.13;;;-0.93;74.84
41636;BME280;27623;51.966;4.602;2024-01-11T08:28:59;62939.00;;;-1.01;74.90
41636;BME280;27623;51.966;4.602;2024-01-11T08:31:24;62975.50;;;-0.88;75.23
41636;BME280;27623;51.966;4.602;2024-01-11T08:33:50;62926.75;;;-0.84;75.08
41636;BME280;27623;51.966;4.602;2024-01-11T08:36:15;62932.28;;;-0.91;75.16
41636;BME280;27623;51.966;4.602;2024-01-11T08:38:41;62949.44;;;-0.89;75.89
41636;BME280;27623;51.966;4.602;2024-01-11T08:41:06;62956.94;;;-0.82;75.82
41636;BME280;27623;51.966;4.602;2024-01-11T08:43:32;62954.81;;;-0.77;76.44
41636;BME280;27623;51.966;4.602;2024-01-11T08:45:58;62943.41;;;-0.68;75.97
41636;BME280;27623;51.966;4.602;2024-01-11T08:48:23;62975.59;;;-0.59;76.14
41636;BME280;27623;51.966;4.602;2024-01-11T08:50:49;62958.81;;;-0.56;76.38
41636;BME280;27623;51.966;4.602;2024-01-11T08:53:16;62988.28;;;-0.64;76.87
41636;BME280;27623;51.966;4.602;2024-01-11T08:55:42;63000.47;;;-0.41;76.76
41636;BME280;27623;51.966;4.602;2024-01-11T08:58:07;63006.06;;;-0.33;76.78
41636;BME280;27623;51.966;4.602;2024-01-11T09:00:36;63044.16;;;-0.25;76.75
41636;BME280;27623;51.966;4.602;2024-01-11T09:03:02;63009.66;;;-0.18;76.64
41636;BME280;27623;51.966;4.602;2024-01-11T09:05:28;63006.47;;;-0.21;76.65
41636;BME280;27623;51.966;4.602;2024-01-11T09:07:57;62996.09;;;-0.19;77.20
41636;BME280;27623;51.966;4.602;2024-01-11T09:10:22;63025.97;;;-0.07;77.35
41636;BME280;27623;51.966;4.602;2024-01-11T09:12:47;63025.28;;;0.04;77.12
41636;BME280;27623;51.966;4.602;2024-01-11T09:15:13;63054.47;;;0.13;77.35
41636;BME280;27623;51.966;4.602;2024-01-11T09:17:38;63042.16;;;0.22;76.51
41636;BME280;27623;51.966;4.602;2024-01-11T09:20:05;63083.28;;;0.23;76.81
41636;BME280;27623;51.966;4.602;2024-01-11T09:22:30;63042.50;;;0.20;76.21
41636;BME280;27623;51.966;4.602;2024-01-11T09:24:56;63026.22;;;0.24;76.56
41636;BME280;27623;51.966;4.602;2024-01-11T09:27:21;63079.91;;;0.25;77.14
41636;BME280;27623;51.966;4.602;2024-01-11T09:29:47;63067.44;;;0.39;76.75
41636;BME280;27623;51.966;4.602;2024-01-11T09:32:13;63080.84;;;0.38;76.68
41636;BME280;27623;51.966;4.602;2024-01-11T09:34:38;63073.88;;;0.38;76.96
41636;BME280;27623;51.966;4.602;2024-01-11T09:37:04;63088.00;;;0.47;77.00
41636;BME280;27623;51.966;4.602;2024-01-11T09:39:29;63115.06;;;0.53;76.71
41636;BME280;27623;51.966;4.602;2024-01-11T09:42:03;63118.88;;;0.71;76.68
41636;BME280;27623;51.966;4.602;2024-01-11T09:44:32;63088.59;;;0.61;76.89
41636;BME280;27623;51.966;4.602;2024-01-11T09:46:58;63129.50;;;1.00;75.57
41636;BME280;27623;51.966;4.602;2024-01-11T09:49:25;63128.59;;;0.94;75.56
41636;BME280;27623;51.966;4.602;2024-01-11T09:51:50;63139.13;;;0.88;76.36
41636;BME280;27623;51.966;4.602;2024-01-11T09:54:18;63116.38;;;0.85;76.35
41636;BME280;27623;51.966;4.602;2024-01-11T09:56:46;63133.53;;;0.59;77.72
41636;BME280;27623;51.966;4.602;2024-01-11T09:59:18;63084.84;;;0.58;78.74
41636;BME280;27623;51.966;4.602;2024-01-11T10:01:43;63124.22;;;0.62;79.65
41636;BME280;27623;51.966;4.602;2024-01-11T10:04:09;63135.19;;;0.82;80.40
41636;BME280;27623;51.966;4.602;2024-01-11T10:06:38;63155.59;;;0.80;81.90
41636;BME280;27623;51.966;4.602;2024-01-11T10:09:03;63119.63;;;0.81;83.02
41636;BME280;27623;51.966;4.602;2024-01-11T10:11:29;63138.25;;;0.89;83.63
41636;BME280;27623;51.966;4.602;2024-01-11T10:13:58;63125.56;;;0.94;84.83
41636;BME280;27623;51.966;4.602;2024-01-11T10:16:24;63134.16;;;1.02;85.59
41636;BME280;27623;51.966;4.602;2024-01-11T10:18:53;63159.59;;;1.07;86.05
41636;BME280;27623;51.966;4.602;2024-01-11T10:21:22;63118.41;;;1.06;86.62
41636;BME280;27623;51.966;4.602;2024-01-11T10:23:49;63168.56;;;1.06;87.03
41636;BME280;27623;51.966;4.602;2024-01-11T10:26:18;63158.34;;;1.11;87.17
41636;BME280;27623;51.966;4.602;2024-01-11T10:28:47;63160.13;;;1.08;87.84
41636;BME280;27623;51.966;4.602;2024-01-11T10:31:13;63149.59;;;1.14;88.61
41636;BME280;27623;51.966;4.602;2024-01-11T10:33:40;63180.06;;;1.19;88.94
41636;BME280;27623;51.966;4.602;2024-01-11T10:36:06;63193.88;;;1.23;88.64
41636;BME280;27623;51.966;4.602;2024-01-11T10:38:39;63187.97;;;1.31;89.13
41636;BME280;27623;51.966;4.602;2024-01-11T10:41:06;63183.63;;;1.13;89.75
41636;BME280;27623;51.966;4.602;2024-01-11T10:43:32;63133.13;;;1.22;90.55
41636;BME280;27623;51.966;4.602;2024-01-11T10:46:01;63195.34;;;1.36;90.92
41636;BME280;27623;51.966;4.602;2024-01-11T10:48:33;63147.31;;;1.38;90.82
41636;BME280;27623;51.966;4.602;2024-01-11T10:51:05;63193.75;;;1.42;91.67
41636;BME280;27623;51.966;4.602;2024-01-11T10:56:05;63216.88;;;1.49;92.87
41636;BME280;27623;51.966;4.602;2024-01-11T10:58:33;63160.94;;;1.39;94.42
41636;BME280;27623;51.966;4.602;2024-01-11T11:00:59;63181.72;;;1.49;94.78
41636;BME280;27623;51.966;4.602;2024-01-11T11:03:28;63189.06;;;1.47;95.28
41636;BME280;27623;51.966;4.602;2024-01-11T11:05:56;63194.13;;;1.54;96.46
41636;BME280;27623;51.966;4.602;2024-01-11T11:08:22;63228.56;;;1.58;96.85
41636;BME280;27623;51.966;4.602;2024-01-11T11:10:51;63221.34;;;1.49;97.78
41636;BME280;27623;51.966;4.602;2024-01-11T11:13:20;63223.56;;;1.65;97.99
41636;BME280;27623;51.966;4.602;2024-01-11T11:15:49;63184.25;;;1.56;98.57
41636;BME280;27623;51.966;4.602;2024-01-11T11:18:17;63226.75;;;1.68;98.56
41636;BME280;27623;51.966;4.602;2024-01-11T11:20:43;63235.72;;;1.67;99.22
41636;BME280;27623;51.966;4.602;2024-01-11T11:23:10;63254.06;;;1.84;99.08
41636;BME280;27623;51.966;4.602;2024-01-11T11:25:41;63249.41;;;1.89;98.86
41636;BME280;27623;51.966;4.602;2024-01-11T11:28:11;63206.88;;;1.70;99.73
41636;BME280;27623;51.966;4.602;2024-01-11T11:30:37;63266.81;;;1.87;99.84
41636;BME280;27623;51.966;4.602;2024-01-11T11:33:10;63230.03;;;1.78;99.97
41636;BME280;27623;51.966;4.602;2024-01-11T11:35:37;63223.22;;;1.88;100.00
41636;BME280;27623;51.966;4.602;2024-01-11T11:38:03;63282.44;;;1.94;100.00
41636;BME280;27623;51.966;4.602;2024-01-11T11:40:38;63218.91;;;1.84;100.00
41636;BME280;27623;51.966;4.602;2024-01-11T11:43:09;63243.84;;;1.89;100.00
41636;BME280;27623;51.966;4.602;2024-01-11T11:45:35;63224.84;;;1.97;100.00
41636;BME280;27623;51.966;4.602;2024-01-11T11:51:06;63278.69;;;2.12;100.00
41636;BME280;27623;51.966;4.602;2024-01-11T11:53:38;63267.75;;;2.06;100.00
41636;BME280;27623;51.966;4.602;2024-01-11T11:56:04;63264.50;;;2.03;100.00
41636;BME280;27623;51.966;4.602;2024-01-11T11:58:31;63288.19;;;2.12;100.00
41636;BME280;27623;51.966;4.602;2024-01-11T12:00:58;63299.88;;;2.13;100.00
41636;BME280;27623;51.966;4.602;2024-01-11T12:03:37;63289.31;;;2.27;100.00
41636;BME280;27623;51.966;4.602;2024-01-11T12:06:05;63321.44;;;2.26;100.00
41636;BME280;27623;51.966;4.602;2024-01-11T12:08:31;63303.16;;;2.37;100.00
41636;BME280;27623;51.966;4.602;2024-01-11T12:10:57;63261.31;;;2.22;100.00
41636;BME280;27623;51.966;4.602;2024-01-11T12:13:24;63339.59;;;2.34;100.00
41636;BME280;27623;51.966;4.602;2024-01-11T12:15:49;63327.75;;;2.37;100.00
41636;BME280;27623;51.966;4.602;2024-01-11T12:18:15;63270.47;;;2.30;100.00
41636;BME280;27623;51.966;4.602;2024-01-11T12:20:40;63340.47;;;2.32;100.00
41636;BME280;27623;51.966;4.602;2024-01-11T12:23:06;63303.16;;;2.37;100.00
41636;BME280;27623;51.966;4.602;2024-01-11T12:25:31;63302.44;;;2.34;100.00
41636;BME280;27623;51.966;4.602;2024-01-11T12:27:57;63348.78;;;2.42;100.00
41636;BME280;27623;51.966;4.602;2024-01-11T12:30:25;63284.84;;;2.41;100.00
41636;BME280;27623;51.966;4.602;2024-01-11T12:32:51;63303.53;;;2.42;100.00
41636;BME280;27623;51.966;4.602;2024-01-11T12:35:17;63286.63;;;2.38;100.00
41636;BME280;27623;51.966;4.602;2024-01-11T12:37:58;63252.34;;;2.51;100.00
41636;BME280;27623;51.966;4.602;2024-01-11T12:40:24;63269.22;;;2.41;100.00
41636;BME280;27623;51.966;4.602;2024-01-11T12:42:49;63344.28;;;2.43;100.00
41636;BME280;27623;51.966;4.602;2024-01-11T12:45:17;63320.22;;;2.37;100.00
41636;BME280;27623;51.966;4.602;2024-01-11T12:47:43;63297.97;;;2.49;100.00
41636;BME280;27623;51.966;4.602;2024-01-11T12:50:09;63246.59;;;2.48;100.00
41636;BME280;27623;51.966;4.602;2024-01-11T12:52:36;63336.19;;;2.50;100.00
41636;BME280;27623;51.966;4.602;2024-01-11T12:55:01;63338.19;;;2.49;100.00
41636;BME280;27623;51.966;4.602;2024-01-11T12:57:27;63377.88;;;2.56;100.00
41636;BME280;27623;51.966;4.602;2024-01-11T12:59:52;63283.41;;;2.57;100.00
41636;BME280;27623;51.966;4.602;2024-01-11T13:02:19;63328.16;;;2.63;100.00
41636;BME280;27623;51.966;4.602;2024-01-11T13:04:45;63322.59;;;2.63;100.00